sensor_id;sensor_type;location;lat;lon;timestamp;P1;durP1;ratioP1;P2;durP2;ratioP2
73571;SDS011;61854;48.510;-2.770;2023-03-04T00:01:58;5.72;;;1.10;;
73571;SDS011;61854;48.510;-2.770;2023-03-04T00:04:24;6.47;;;1.15;;
73571;SDS011;61854;48.510;-2.770;2023-03-04T00:06:50;6.63;;;0.80;;
73571;SDS011;61854;48.510;-2.770;2023-03-04T00:09:16;8.60;;;1.50;;
73571;SDS011;61854;48.510;-2.770;2023-03-04T00:11:41;12.13;;;1.38;;
73571;SDS011;61854;48.510;-2.770;2023-03-04T00:14:07;3.83;;;1.08;;
73571;SDS011;61854;48.510;-2.770;2023-03-04T00:16:33;6.88;;;1.33;;
73571;SDS011;61854;48.510;-2.770;2023-03-04T00:18:58;7.25;;;1.15;;
73571;SDS011;61854;48.510;-2.770;2023-03-04T00:21:24;4.82;;;1.08;;
73571;SDS011;61854;48.510;-2.770;2023-03-04T00:23:50;8.32;;;1.20;;
73571;SDS011;61854;48.510;-2.770;2023-03-04T00:26:16;7.95;;;1.33;;
73571;SDS011;61854;48.510;-2.770;2023-03-04T00:28:43;3.15;;;0.98;;
73571;SDS011;61854;48.510;-2.770;2023-03-04T00:31:09;6.32;;;0.90;;
73571;SDS011;61854;48.510;-2.770;2023-03-04T00:33:35;7.90;;;1.25;;
73571;SDS011;61854;48.510;-2.770;2023-03-04T00:36:01;5.47;;;1.00;;
73571;SDS011;61854;48.510;-2.770;2023-03-04T00:38:28;6.35;;;1.15;;
73571;SDS011;61854;48.510;-2.770;2023-03-04T00:40:53;4.78;;;1.08;;
73571;SDS011;61854;48.510;-2.770;2023-03-04T00:43:19;3.70;;;1.00;;
73571;SDS011;61854;48.510;-2.770;2023-03-04T00:45:46;6.32;;;1.00;;
73571;SDS011;61854;48.510;-2.770;2023-03-04T00:48:11;6.35;;;1.50;;
73571;SDS011;61854;48.510;-2.770;2023-03-04T00:50:37;9.25;;;1.58;;
73571;SDS011;61854;48.510;-2.770;2023-03-04T00:53:03;6.15;;;1.00;;
73571;SDS011;61854;48.510;-2.770;2023-03-04T00:55:29;3.60;;;0.98;;
73571;SDS011;61854;48.510;-2.770;2023-03-04T00:57:55;5.97;;;1.20;;
73571;SDS011;61854;48.510;-2.770;2023-03-04T01:00:21;7.22;;;1.10;;
73571;SDS011;61854;48.510;-2.770;2023-03-04T01:02:47;6.82;;;1.17;;
73571;SDS011;61854;48.510;-2.770;2023-03-04T01:05:13;7.93;;;1.10;;
73571;SDS011;61854;48.510;-2.770;2023-03-04T01:07:39;5.35;;;1.20;;
73571;SDS011;61854;48.510;-2.770;2023-03-04T01:10:05;2.80;;;0.82;;
73571;SDS011;61854;48.510;-2.770;2023-03-04T01:12:35;8.25;;;1.27;;
73571;SDS011;61854;48.510;-2.770;2023-03-04T01:15:01;6.78;;;1.02;;
73571;SDS011;61854;48.510;-2.770;2023-03-04T01:17:27;7.90;;;1.20;;
73571;SDS011;61854;48.510;-2.770;2023-03-04T01:19:53;3.40;;;0.95;;
73571;SDS011;61854;48.510;-2.770;2023-03-04T01:22:19;9.95;;;1.50;;
73571;SDS011;61854;48.510;-2.770;2023-03-04T01:24:44;4.85;;;0.90;;
73571;SDS011;61854;48.510;-2.770;2023-03-04T01:27:10;4.20;;;1.05;;
73571;SDS011;61854;48.510;-2.770;2023-03-04T01:29:36;6.05;;;1.00;;
73571;SDS011;61854;48.510;-2.770;2023-03-04T01:32:02;5.30;;;1.23;;
73571;SDS011;61854;48.510;-2.770;2023-03-04T01:34:31;5.40;;;1.10;;
73571;SDS011;61854;48.510;-2.770;2023-03-04T01:36:56;5.68;;;1.13;;
73571;SDS011;61854;48.510;-2.770;2023-03-04T01:39:22;9.00;;;1.10;;
73571;SDS011;61854;48.510;-2.770;2023-03-04T01:41:48;6.13;;;1.15;;
73571;SDS011;61854;48.510;-2.770;2023-03-04T01:44:14;5.75;;;0.93;;
73571;SDS011;61854;48.510;-2.770;2023-03-04T01:46:41;6.38;;;1.20;;
73571;SDS011;61854;48.510;-2.770;2023-03-04T01:49:11;8.07;;;1.42;;
73571;SDS011;61854;48.510;-2.770;2023-03-04T01:51:41;5.70;;;1.00;;
73571;SDS011;61854;48.510;-2.770;2023-03-04T01:54:08;8.77;;;1.30;;
73571;SDS011;61854;48.510;-2.770;2023-03-04T01:56:35;8.45;;;1.45;;
73571;SDS011;61854;48.510;-2.770;2023-03-04T02:01:39;6.93;;;1.25;;
73571;SDS011;61854;48.510;-2.770;2023-03-04T02:04:07;9.35;;;1.70;;
73571;SDS011;61854;48.510;-2.770;2023-03-04T02:06:36;7.63;;;1.23;;
73571;SDS011;61854;48.510;-2.770;2023-03-04T02:09:04;6.55;;;1.40;;
73571;SDS011;61854;48.510;-2.770;2023-03-04T02:11:30;8.77;;;1.50;;
73571;SDS011;61854;48.510;-2.770;2023-03-04T02:13:57;11.65;;;1.35;;
73571;SDS011;61854;48.510;-2.770;2023-03-04T02:16:26;5.63;;;1.30;;
73571;SDS011;61854;48.510;-2.770;2023-03-04T02:18:52;8.60;;;1.73;;
73571;SDS011;61854;48.510;-2.770;2023-03-04T02:21:25;13.68;;;1.60;;
73571;SDS011;61854;48.510;-2.770;2023-03-04T02:24:02;3.88;;;1.25;;
73571;SDS011;61854;48.510;-2.770;2023-03-04T02:26:36;4.32;;;1.40;;
73571;SDS011;61854;48.510;-2.770;2023-03-04T02:29:05;9.20;;;1.42;;
73571;SDS011;61854;48.510;-2.770;2023-03-04T02:31:37;8.45;;;1.80;;
73571;SDS011;61854;48.510;-2.770;2023-03-04T02:34:12;7.18;;;1.83;;
73571;SDS011;61854;48.510;-2.770;2023-03-04T02:36:40;4.78;;;1.40;;
73571;SDS011;61854;48.510;-2.770;2023-03-04T02:39:10;9.52;;;1.67;;
73571;SDS011;61854;48.510;-2.770;2023-03-04T02:41:39;6.57;;;1.90;;
73571;SDS011;61854;48.510;-2.770;2023-03-04T02:46:44;10.05;;;1.67;;
73571;SDS011;61854;48.510;-2.770;2023-03-04T02:49:10;11.88;;;1.92;;
73571;SDS011;61854;48.510;-2.770;2023-03-04T02:51:37;11.68;;;2.22;;
73571;SDS011;61854;48.510;-2.770;2023-03-04T02:54:03;10.25;;;1.90;;
73571;SDS011;61854;48.510;-2.770;2023-03-04T02:56:29;14.82;;;2.53;;
73571;SDS011;61854;48.510;-2.770;2023-03-04T02:58:54;11.07;;;2.47;;
73571;SDS011;61854;48.510;-2.770;2023-03-04T03:01:20;8.75;;;2.58;;
73571;SDS011;61854;48.510;-2.770;2023-03-04T03:03:46;9.43;;;2.38;;
73571;SDS011;61854;48.510;-2.770;2023-03-04T03:06:11;12.18;;;2.70;;
73571;SDS011;61854;48.510;-2.770;2023-03-04T03:08:37;15.20;;;2.60;;
73571;SDS011;61854;48.510;-2.770;2023-03-04T03:11:03;11.35;;;2.72;;
73571;SDS011;61854;48.510;-2.770;2023-03-04T03:13:29;13.75;;;3.05;;
73571;SDS011;61854;48.510;-2.770;2023-03-04T03:15:54;11.43;;;2.85;;
73571;SDS011;61854;48.510;-2.770;2023-03-04T03:18:20;6.72;;;2.58;;
73571;SDS011;61854;48.510;-2.770;2023-03-04T03:20:46;9.25;;;2.88;;
73571;SDS011;61854;48.510;-2.770;2023-03-04T03:23:12;7.10;;;2.83;;
73571;SDS011;61854;48.510;-2.770;2023-03-04T03:25:38;12.07;;;3.53;;
73571;SDS011;61854;48.510;-2.770;2023-03-04T03:28:03;9.57;;;2.80;;
73571;SDS011;61854;48.510;-2.770;2023-03-04T03:30:29;10.63;;;2.83;;
73571;SDS011;61854;48.510;-2.770;2023-03-04T03:32:55;9.75;;;3.00;;
73571;SDS011;61854;48.510;-2.770;2023-03-04T03:35:21;9.63;;;3.08;;
73571;SDS011;61854;48.510;-2.770;2023-03-04T03:37:46;10.90;;;3.67;;
73571;SDS011;61854;48.510;-2.770;2023-03-04T03:40:13;9.25;;;3.58;;
73571;SDS011;61854;48.510;-2.770;2023-03-04T03:42:39;10.25;;;3.40;;
73571;SDS011;61854;48.510;-2.770;2023-03-04T03:45:04;11.27;;;3.45;;
73571;SDS011;61854;48.510;-2.770;2023-03-04T03:47:31;8.90;;;3.33;;
73571;SDS011;61854;48.510;-2.770;2023-03-04T03:49:56;13.63;;;3.47;;
73571;SDS011;61854;48.510;-2.770;2023-03-04T03:52:22;14.63;;;3.72;;
73571;SDS011;61854;48.510;-2.770;2023-03-04T03:54:48;12.60;;;3.88;;
73571;SDS011;61854;48.510;-2.770;2023-03-04T03:57:13;13.15;;;3.90;;
73571;SDS011;61854;48.510;-2.770;2023-03-04T03:59:39;13.15;;;4.40;;
73571;SDS011;61854;48.510;-2.770;2023-03-04T04:02:05;12.90;;;3.70;;
73571;SDS011;61854;48.510;-2.770;2023-03-04T04:04:31;13.10;;;4.32;;
73571;SDS011;61854;48.510;-2.770;2023-03-04T04:06:57;15.57;;;3.95;;
73571;SDS011;61854;48.510;-2.770;2023-03-04T04:09:22;14.30;;;4.38;;
73571;SDS011;61854;48.510;-2.770;2023-03-04T04:11:48;9.50;;;4.30;;
73571;SDS011;61854;48.510;-2.770;2023-03-04T04:14:14;15.93;;;4.38;;
73571;SDS011;61854;48.510;-2.770;2023-03-04T04:16:40;9.27;;;4.05;;
73571;SDS011;61854;48.510;-2.770;2023-03-04T04:19:06;15.95;;;5.18;;
73571;SDS011;61854;48.510;-2.770;2023-03-04T04:21:31;15.18;;;4.57;;
73571;SDS011;61854;48.510;-2.770;2023-03-04T04:23:57;12.38;;;4.32;;
73571;SDS011;61854;48.510;-2.770;2023-03-04T04:26:23;9.30;;;4.78;;
73571;SDS011;61854;48.510;-2.770;2023-03-04T04:28:49;12.73;;;4.00;;
73571;SDS011;61854;48.510;-2.770;2023-03-04T04:31:15;13.68;;;4.45;;
73571;SDS011;61854;48.510;-2.770;2023-03-04T04:33:40;13.98;;;4.10;;
73571;SDS011;61854;48.510;-2.770;2023-03-04T04:36:07;12.35;;;5.20;;
73571;SDS011;61854;48.510;-2.770;2023-03-04T04:38:37;14.38;;;5.05;;
73571;SDS011;61854;48.510;-2.770;2023-03-04T04:41:02;12.27;;;4.85;;
73571;SDS011;61854;48.510;-2.770;2023-03-04T04:43:29;13.60;;;4.97;;
73571;SDS011;61854;48.510;-2.770;2023-03-04T04:45:55;9.82;;;4.53;;
73571;SDS011;61854;48.510;-2.770;2023-03-04T04:48:23;13.80;;;5.53;;
73571;SDS011;61854;48.510;-2.770;2023-03-04T04:50:52;14.05;;;5.03;;
73571;SDS011;61854;48.510;-2.770;2023-03-04T04:53:19;12.85;;;5.45;;
73571;SDS011;61854;48.510;-2.770;2023-03-04T04:55:45;9.88;;;4.93;;
73571;SDS011;61854;48.510;-2.770;2023-03-04T04:58:13;11.30;;;4.80;;
73571;SDS011;61854;48.510;-2.770;2023-03-04T05:03:05;12.55;;;5.25;;
73571;SDS011;61854;48.510;-2.770;2023-03-04T05:05:30;13.40;;;5.43;;
73571;SDS011;61854;48.510;-2.770;2023-03-04T05:07:56;11.05;;;5.43;;
73571;SDS011;61854;48.510;-2.770;2023-03-04T05:10:22;15.27;;;5.30;;
73571;SDS011;61854;48.510;-2.770;2023-03-04T05:12:47;14.88;;;5.57;;
73571;SDS011;61854;48.510;-2.770;2023-03-04T05:15:14;12.00;;;5.47;;
73571;SDS011;61854;48.510;-2.770;2023-03-04T05:17:39;12.88;;;6.13;;
73571;SDS011;61854;48.510;-2.770;2023-03-04T05:20:05;15.30;;;6.30;;
73571;SDS011;61854;48.510;-2.770;2023-03-04T05:22:32;14.55;;;6.63;;
73571;SDS011;61854;48.510;-2.770;2023-03-04T05:24:58;13.15;;;6.22;;
73571;SDS011;61854;48.510;-2.770;2023-03-04T05:27:24;18.02;;;6.63;;
73571;SDS011;61854;48.510;-2.770;2023-03-04T05:29:50;16.08;;;6.20;;
73571;SDS011;61854;48.510;-2.770;2023-03-04T05:32:16;10.45;;;6.15;;
73571;SDS011;61854;48.510;-2.770;2023-03-04T05:34:41;14.57;;;7.20;;
73571;SDS011;61854;48.510;-2.770;2023-03-04T05:37:07;15.10;;;6.95;;
73571;SDS011;61854;48.510;-2.770;2023-03-04T05:39:33;12.57;;;6.30;;
73571;SDS011;61854;48.510;-2.770;2023-03-04T05:41:58;11.32;;;7.25;;
73571;SDS011;61854;48.510;-2.770;2023-03-04T05:44:24;14.43;;;6.75;;
73571;SDS011;61854;48.510;-2.770;2023-03-04T05:46:50;13.57;;;6.78;;
73571;SDS011;61854;48.510;-2.770;2023-03-04T05:49:15;13.20;;;6.95;;
73571;SDS011;61854;48.510;-2.770;2023-03-04T05:51:41;13.45;;;7.07;;
73571;SDS011;61854;48.510;-2.770;2023-03-04T05:54:07;13.32;;;7.53;;
73571;SDS011;61854;48.510;-2.770;2023-03-04T05:56:33;15.70;;;7.82;;
73571;SDS011;61854;48.510;-2.770;2023-03-04T05:58:58;16.55;;;7.85;;
73571;SDS011;61854;48.510;-2.770;2023-03-04T06:01:24;17.75;;;8.55;;
73571;SDS011;61854;48.510;-2.770;2023-03-04T06:03:55;14.50;;;7.65;;
73571;SDS011;61854;48.510;-2.770;2023-03-04T06:06:21;13.88;;;8.18;;
73571;SDS011;61854;48.510;-2.770;2023-03-04T06:08:47;15.50;;;8.85;;
73571;SDS011;61854;48.510;-2.770;2023-03-04T06:11:12;17.88;;;9.10;;
73571;SDS011;61854;48.510;-2.770;2023-03-04T06:13:38;14.02;;;8.07;;
73571;SDS011;61854;48.510;-2.770;2023-03-04T06:16:04;16.33;;;9.32;;
73571;SDS011;61854;48.510;-2.770;2023-03-04T06:18:30;17.63;;;9.25;;
73571;SDS011;61854;48.510;-2.770;2023-03-04T06:20:56;19.38;;;9.80;;
73571;SDS011;61854;48.510;-2.770;2023-03-04T06:23:25;15.65;;;8.75;;
73571;SDS011;61854;48.510;-2.770;2023-03-04T06:25:55;17.33;;;9.52;;
73571;SDS011;61854;48.510;-2.770;2023-03-04T06:28:23;18.17;;;9.43;;
73571;SDS011;61854;48.510;-2.770;2023-03-04T06:30:53;24.73;;;9.70;;
73571;SDS011;61854;48.510;-2.770;2023-03-04T06:33:19;17.73;;;9.95;;
73571;SDS011;61854;48.510;-2.770;2023-03-04T06:35:46;18.40;;;10.50;;
73571;SDS011;61854;48.510;-2.770;2023-03-04T06:38:12;21.63;;;10.80;;
73571;SDS011;61854;48.510;-2.770;2023-03-04T06:40:37;16.73;;;9.98;;
73571;SDS011;61854;48.510;-2.770;2023-03-04T06:43:03;19.10;;;9.63;;
73571;SDS011;61854;48.510;-2.770;2023-03-04T06:45:29;14.32;;;9.18;;
73571;SDS011;61854;48.510;-2.770;2023-03-04T06:47:55;16.80;;;10.15;;
73571;SDS011;61854;48.510;-2.770;2023-03-04T06:50:20;18.17;;;10.02;;
73571;SDS011;61854;48.510;-2.770;2023-03-04T06:52:46;16.27;;;10.52;;
73571;SDS011;61854;48.510;-2.770;2023-03-04T06:55:13;19.15;;;10.38;;
73571;SDS011;61854;48.510;-2.770;2023-03-04T06:57:39;17.73;;;11.00;;
73571;SDS011;61854;48.510;-2.770;2023-03-04T07:00:05;20.30;;;11.57;;
73571;SDS011;61854;48.510;-2.770;2023-03-04T07:02:31;21.00;;;12.07;;
73571;SDS011;61854;48.510;-2.770;2023-03-04T07:04:57;22.05;;;10.90;;
73571;SDS011;61854;48.510;-2.770;2023-03-04T07:07:23;21.48;;;11.25;;
73571;SDS011;61854;48.510;-2.770;2023-03-04T07:09:50;17.20;;;11.32;;
73571;SDS011;61854;48.510;-2.770;2023-03-04T07:12:16;18.20;;;11.68;;
73571;SDS011;61854;48.510;-2.770;2023-03-04T07:14:41;19.98;;;11.98;;
73571;SDS011;61854;48.510;-2.770;2023-03-04T07:17:07;22.20;;;11.95;;
73571;SDS011;61854;48.510;-2.770;2023-03-04T07:19:33;21.23;;;12.77;;
73571;SDS011;61854;48.510;-2.770;2023-03-04T07:21:59;21.58;;;13.50;;
73571;SDS011;61854;48.510;-2.770;2023-03-04T07:24:25;21.52;;;12.02;;
73571;SDS011;61854;48.510;-2.770;2023-03-04T07:26:51;22.25;;;13.43;;
73571;SDS011;61854;48.510;-2.770;2023-03-04T07:29:17;19.52;;;13.10;;
73571;SDS011;61854;48.510;-2.770;2023-03-04T07:31:42;22.02;;;13.40;;
73571;SDS011;61854;48.510;-2.770;2023-03-04T07:34:09;19.55;;;11.48;;
73571;SDS011;61854;48.510;-2.770;2023-03-04T07:36:37;22.30;;;13.77;;
73571;SDS011;61854;48.510;-2.770;2023-03-04T07:39:03;21.75;;;13.40;;
73571;SDS011;61854;48.510;-2.770;2023-03-04T07:41:30;19.42;;;13.32;;
73571;SDS011;61854;48.510;-2.770;2023-03-04T07:43:57;29.10;;;14.73;;
73571;SDS011;61854;48.510;-2.770;2023-03-04T07:46:23;22.98;;;14.10;;
73571;SDS011;61854;48.510;-2.770;2023-03-04T07:48:49;27.80;;;14.70;;
73571;SDS011;61854;48.510;-2.770;2023-03-04T07:51:16;26.92;;;16.00;;
73571;SDS011;61854;48.510;-2.770;2023-03-04T07:53:45;22.70;;;14.90;;
73571;SDS011;61854;48.510;-2.770;2023-03-04T07:58:42;20.55;;;12.98;;
73571;SDS011;61854;48.510;-2.770;2023-03-04T08:01:15;23.15;;;13.68;;
73571;SDS011;61854;48.510;-2.770;2023-03-04T08:03:45;22.23;;;14.45;;
73571;SDS011;61854;48.510;-2.770;2023-03-04T08:06:13;19.58;;;13.52;;
73571;SDS011;61854;48.510;-2.770;2023-03-04T08:11:07;23.33;;;14.43;;
73571;SDS011;61854;48.510;-2.770;2023-03-04T08:13:38;21.83;;;14.77;;
73571;SDS011;61854;48.510;-2.770;2023-03-04T08:16:04;23.92;;;13.85;;
73571;SDS011;61854;48.510;-2.770;2023-03-04T08:18:30;20.90;;;14.23;;
73571;SDS011;61854;48.510;-2.770;2023-03-04T08:20:56;23.55;;;14.55;;
73571;SDS011;61854;48.510;-2.770;2023-03-04T08:23:21;22.52;;;15.63;;
73571;SDS011;61854;48.510;-2.770;2023-03-04T08:25:48;22.23;;;15.05;;
73571;SDS011;61854;48.510;-2.770;2023-03-04T08:28:14;21.50;;;14.68;;
73571;SDS011;61854;48.510;-2.770;2023-03-04T08:30:40;22.88;;;14.43;;
73571;SDS011;61854;48.510;-2.770;2023-03-04T08:33:06;22.95;;;13.93;;
73571;SDS011;61854;48.510;-2.770;2023-03-04T08:35:35;21.77;;;14.45;;
73571;SDS011;61854;48.510;-2.770;2023-03-04T08:38:03;20.48;;;13.98;;
73571;SDS011;61854;48.510;-2.770;2023-03-04T08:40:28;22.75;;;14.98;;
73571;SDS011;61854;48.510;-2.770;2023-03-04T08:42:55;23.70;;;14.18;;
73571;SDS011;61854;48.510;-2.770;2023-03-04T08:45:20;19.92;;;14.32;;
73571;SDS011;61854;48.510;-2.770;2023-03-04T08:47:46;21.55;;;14.50;;
73571;SDS011;61854;48.510;-2.770;2023-03-04T08:50:15;26.00;;;15.32;;
73571;SDS011;61854;48.510;-2.770;2023-03-04T08:52:41;24.27;;;14.45;;
73571;SDS011;61854;48.510;-2.770;2023-03-04T08:55:07;22.27;;;14.93;;
73571;SDS011;61854;48.510;-2.770;2023-03-04T08:57:33;20.45;;;14.27;;
73571;SDS011;61854;48.510;-2.770;2023-03-04T08:59:59;21.45;;;13.68;;
73571;SDS011;61854;48.510;-2.770;2023-03-04T09:02:24;22.73;;;13.82;;
73571;SDS011;61854;48.510;-2.770;2023-03-04T09:04:50;23.05;;;14.32;;
73571;SDS011;61854;48.510;-2.770;2023-03-04T09:07:16;20.65;;;14.02;;
73571;SDS011;61854;48.510;-2.770;2023-03-04T09:09:42;22.92;;;13.98;;
73571;SDS011;61854;48.510;-2.770;2023-03-04T09:12:07;18.60;;;12.15;;
73571;SDS011;61854;48.510;-2.770;2023-03-04T09:14:33;19.05;;;12.63;;
73571;SDS011;61854;48.510;-2.770;2023-03-04T09:17:00;15.40;;;11.55;;
73571;SDS011;61854;48.510;-2.770;2023-03-04T09:19:27;17.65;;;11.88;;
73571;SDS011;61854;48.510;-2.770;2023-03-04T09:21:53;18.33;;;11.80;;
73571;SDS011;61854;48.510;-2.770;2023-03-04T09:24:23;17.17;;;10.45;;
73571;SDS011;61854;48.510;-2.770;2023-03-04T09:26:50;19.30;;;12.23;;
73571;SDS011;61854;48.510;-2.770;2023-03-04T09:29:17;17.35;;;10.93;;
73571;SDS011;61854;48.510;-2.770;2023-03-04T09:31:43;15.45;;;11.30;;
73571;SDS011;61854;48.510;-2.770;2023-03-04T09:34:09;16.33;;;10.43;;
73571;SDS011;61854;48.510;-2.770;2023-03-04T09:36:34;18.40;;;10.98;;
73571;SDS011;61854;48.510;-2.770;2023-03-04T09:39:03;18.30;;;11.38;;
73571;SDS011;61854;48.510;-2.770;2023-03-04T09:41:51;15.85;;;10.40;;
73571;SDS011;61854;48.510;-2.770;2023-03-04T09:46:51;14.82;;;10.30;;
73571;SDS011;61854;48.510;-2.770;2023-03-04T09:49:22;16.73;;;10.32;;
73571;SDS011;61854;48.510;-2.770;2023-03-04T09:52:27;17.02;;;10.30;;
73571;SDS011;61854;48.510;-2.770;2023-03-04T10:00:41;24.88;;;11.00;;
73571;SDS011;61854;48.510;-2.770;2023-03-04T10:05:58;15.85;;;9.93;;
73571;SDS011;61854;48.510;-2.770;2023-03-04T10:08:49;18.33;;;9.95;;
73571;SDS011;61854;48.510;-2.770;2023-03-04T10:11:26;14.40;;;9.45;;
73571;SDS011;61854;48.510;-2.770;2023-03-04T10:16:28;17.25;;;10.50;;
73571;SDS011;61854;48.510;-2.770;2023-03-04T10:19:06;16.15;;;9.57;;
73571;SDS011;61854;48.510;-2.770;2023-03-04T10:21:37;16.10;;;9.63;;
73571;SDS011;61854;48.510;-2.770;2023-03-04T10:24:10;16.90;;;9.23;;
73571;SDS011;61854;48.510;-2.770;2023-03-04T10:26:43;14.80;;;8.80;;
73571;SDS011;61854;48.510;-2.770;2023-03-04T10:29:18;17.45;;;9.30;;
73571;SDS011;61854;48.510;-2.770;2023-03-04T10:31:45;17.15;;;10.02;;
73571;SDS011;61854;48.510;-2.770;2023-03-04T10:34:13;17.37;;;9.10;;
73571;SDS011;61854;48.510;-2.770;2023-03-04T10:39:31;17.55;;;8.82;;
73571;SDS011;61854;48.510;-2.770;2023-03-04T10:42:04;18.25;;;8.63;;
73571;SDS011;61854;48.510;-2.770;2023-03-04T10:44:56;15.10;;;8.05;;
73571;SDS011;61854;48.510;-2.770;2023-03-04T10:47:24;11.03;;;7.50;;
73571;SDS011;61854;48.510;-2.770;2023-03-04T10:49:53;11.15;;;6.32;;
73571;SDS011;61854;48.510;-2.770;2023-03-04T10:52:40;12.32;;;6.68;;
73571;SDS011;61854;48.510;-2.770;2023-03-04T10:55:15;33.55;;;15.25;;
73571;SDS011;61854;48.510;-2.770;2023-03-04T10:57:43;22.17;;;9.15;;
73571;SDS011;61854;48.510;-2.770;2023-03-04T11:00:30;27.40;;;9.82;;
73571;SDS011;61854;48.510;-2.770;2023-03-04T11:05:51;14.90;;;7.72;;
73571;SDS011;61854;48.510;-2.770;2023-03-04T11:08:29;20.05;;;9.88;;
73571;SDS011;61854;48.510;-2.770;2023-03-04T11:10:55;26.58;;;13.35;;
73571;SDS011;61854;48.510;-2.770;2023-03-04T11:13:22;16.08;;;7.85;;
73571;SDS011;61854;48.510;-2.770;2023-03-04T11:15:53;15.18;;;8.60;;
73571;SDS011;61854;48.510;-2.770;2023-03-04T11:18:30;14.93;;;7.95;;
73571;SDS011;61854;48.510;-2.770;2023-03-04T11:21:01;11.95;;;6.13;;
73571;SDS011;61854;48.510;-2.770;2023-03-04T11:23:47;9.90;;;5.82;;
73571;SDS011;61854;48.510;-2.770;2023-03-04T11:26:19;12.40;;;6.13;;
73571;SDS011;61854;48.510;-2.770;2023-03-04T11:28:50;13.43;;;7.07;;
73571;SDS011;61854;48.510;-2.770;2023-03-04T11:31:22;11.20;;;5.53;;
73571;SDS011;61854;48.510;-2.770;2023-03-04T11:33:56;12.13;;;6.05;;
73571;SDS011;61854;48.510;-2.770;2023-03-04T11:38:57;10.82;;;4.82;;
73571;SDS011;61854;48.510;-2.770;2023-03-04T11:41:27;11.13;;;4.50;;
73571;SDS011;61854;48.510;-2.770;2023-03-04T11:43:56;11.13;;;4.75;;
73571;SDS011;61854;48.510;-2.770;2023-03-04T11:57:08;11.88;;;5.10;;
73571;SDS011;61854;48.510;-2.770;2023-03-04T12:03:02;10.07;;;4.60;;
73571;SDS011;61854;48.510;-2.770;2023-03-04T12:11:04;8.18;;;5.18;;
73571;SDS011;61854;48.510;-2.770;2023-03-04T12:19:29;7.55;;;3.20;;
73571;SDS011;61854;48.510;-2.770;2023-03-04T12:22:17;7.10;;;2.20;;
73571;SDS011;61854;48.510;-2.770;2023-03-04T12:25:11;5.55;;;1.50;;
73571;SDS011;61854;48.510;-2.770;2023-03-04T12:28:45;8.70;;;1.35;;
73571;SDS011;61854;48.510;-2.770;2023-03-04T12:33:56;6.03;;;1.75;;
73571;SDS011;61854;48.510;-2.770;2023-03-04T12:36:38;6.97;;;2.13;;
73571;SDS011;61854;48.510;-2.770;2023-03-04T12:42:22;7.25;;;1.83;;
73571;SDS011;61854;48.510;-2.770;2023-03-04T12:44:59;8.40;;;1.88;;
73571;SDS011;61854;48.510;-2.770;2023-03-04T12:55:51;8.23;;;2.35;;
73571;SDS011;61854;48.510;-2.770;2023-03-04T12:58:26;8.10;;;2.28;;
73571;SDS011;61854;48.510;-2.770;2023-03-04T13:01:03;9.23;;;1.95;;
73571;SDS011;61854;48.510;-2.770;2023-03-04T13:15:16;8.95;;;1.77;;
73571;SDS011;61854;48.510;-2.770;2023-03-04T13:23:38;7.50;;;1.52;;
73571;SDS011;61854;48.510;-2.770;2023-03-04T13:26:20;8.38;;;1.90;;
73571;SDS011;61854;48.510;-2.770;2023-03-04T13:28:52;7.80;;;1.60;;
73571;SDS011;61854;48.510;-2.770;2023-03-04T13:31:32;7.43;;;1.90;;
73571;SDS011;61854;48.510;-2.770;2023-03-04T13:42:47;4.85;;;1.23;;
73571;SDS011;61854;48.510;-2.770;2023-03-04T13:45:30;8.20;;;1.50;;
73571;SDS011;61854;48.510;-2.770;2023-03-04T13:47:56;8.15;;;1.50;;
73571;SDS011;61854;48.510;-2.770;2023-03-04T13:50:26;7.78;;;1.50;;
73571;SDS011;61854;48.510;-2.770;2023-03-04T13:53:21;5.18;;;1.50;;
73571;SDS011;61854;48.510;-2.770;2023-03-04T13:58:39;9.60;;;2.00;;
73571;SDS011;61854;48.510;-2.770;2023-03-04T14:01:05;9.48;;;2.13;;
73571;SDS011;61854;48.510;-2.770;2023-03-04T14:03:52;8.30;;;1.40;;
73571;SDS011;61854;48.510;-2.770;2023-03-04T14:06:23;9.20;;;1.60;;
73571;SDS011;61854;48.510;-2.770;2023-03-04T14:08:50;7.63;;;1.60;;
73571;SDS011;61854;48.510;-2.770;2023-03-04T14:11:35;9.23;;;1.30;;
73571;SDS011;61854;48.510;-2.770;2023-03-04T14:14:07;7.75;;;1.63;;
73571;SDS011;61854;48.510;-2.770;2023-03-04T14:16:45;9.90;;;1.27;;
73571;SDS011;61854;48.510;-2.770;2023-03-04T14:19:28;6.78;;;1.35;;
73571;SDS011;61854;48.510;-2.770;2023-03-04T14:22:00;7.00;;;1.30;;
73571;SDS011;61854;48.510;-2.770;2023-03-04T14:24:26;9.48;;;1.33;;
73571;SDS011;61854;48.510;-2.770;2023-03-04T14:27:09;7.57;;;1.50;;
73571;SDS011;61854;48.510;-2.770;2023-03-04T14:29:38;11.80;;;1.50;;
73571;SDS011;61854;48.510;-2.770;2023-03-04T14:32:06;17.17;;;1.75;;
73571;SDS011;61854;48.510;-2.770;2023-03-04T14:34:33;5.97;;;1.40;;
73571;SDS011;61854;48.510;-2.770;2023-03-04T14:37:02;6.38;;;1.50;;
73571;SDS011;61854;48.510;-2.770;2023-03-04T14:39:42;8.13;;;1.40;;
73571;SDS011;61854;48.510;-2.770;2023-03-04T14:42:09;10.02;;;1.88;;
73571;SDS011;61854;48.510;-2.770;2023-03-04T14:44:48;10.00;;;1.48;;
73571;SDS011;61854;48.510;-2.770;2023-03-04T14:50:12;8.55;;;1.55;;
73571;SDS011;61854;48.510;-2.770;2023-03-04T14:52:41;7.05;;;1.90;;
73571;SDS011;61854;48.510;-2.770;2023-03-04T14:55:24;9.63;;;1.98;;
73571;SDS011;61854;48.510;-2.770;2023-03-04T14:57:53;9.48;;;1.60;;
73571;SDS011;61854;48.510;-2.770;2023-03-04T15:00:42;9.35;;;2.13;;
73571;SDS011;61854;48.510;-2.770;2023-03-04T15:06:13;18.30;;;1.77;;
73571;SDS011;61854;48.510;-2.770;2023-03-04T15:08:44;7.40;;;1.67;;
73571;SDS011;61854;48.510;-2.770;2023-03-04T15:11:23;9.18;;;1.60;;
73571;SDS011;61854;48.510;-2.770;2023-03-04T15:13:56;12.40;;;1.88;;
73571;SDS011;61854;48.510;-2.770;2023-03-04T15:16:24;9.25;;;1.98;;
73571;SDS011;61854;48.510;-2.770;2023-03-04T15:21:36;14.13;;;2.00;;
73571;SDS011;61854;48.510;-2.770;2023-03-04T15:24:05;14.45;;;2.33;;
73571;SDS011;61854;48.510;-2.770;2023-03-04T15:26:38;9.95;;;1.88;;
73571;SDS011;61854;48.510;-2.770;2023-03-04T15:29:10;13.10;;;2.00;;
73571;SDS011;61854;48.510;-2.770;2023-03-04T15:31:42;9.00;;;1.75;;
73571;SDS011;61854;48.510;-2.770;2023-03-04T15:34:12;9.00;;;1.98;;
73571;SDS011;61854;48.510;-2.770;2023-03-04T15:36:39;8.00;;;1.95;;
73571;SDS011;61854;48.510;-2.770;2023-03-04T15:39:08;14.95;;;2.20;;
73571;SDS011;61854;48.510;-2.770;2023-03-04T15:41:37;13.88;;;2.20;;
73571;SDS011;61854;48.510;-2.770;2023-03-04T15:44:03;9.45;;;2.20;;
73571;SDS011;61854;48.510;-2.770;2023-03-04T15:46:29;13.55;;;2.85;;
73571;SDS011;61854;48.510;-2.770;2023-03-04T15:48:57;10.45;;;3.20;;
73571;SDS011;61854;48.510;-2.770;2023-03-04T15:51:26;11.77;;;2.05;;
73571;SDS011;61854;48.510;-2.770;2023-03-04T15:53:52;8.25;;;1.77;;
73571;SDS011;61854;48.510;-2.770;2023-03-04T15:56:25;10.05;;;2.08;;
73571;SDS011;61854;48.510;-2.770;2023-03-04T15:58:54;11.38;;;2.55;;
73571;SDS011;61854;48.510;-2.770;2023-03-04T16:01:24;6.90;;;1.88;;
73571;SDS011;61854;48.510;-2.770;2023-03-04T16:03:50;8.05;;;1.58;;
73571;SDS011;61854;48.510;-2.770;2023-03-04T16:06:16;6.85;;;1.98;;
73571;SDS011;61854;48.510;-2.770;2023-03-04T16:08:46;7.28;;;1.90;;
73571;SDS011;61854;48.510;-2.770;2023-03-04T16:11:17;9.57;;;2.42;;
73571;SDS011;61854;48.510;-2.770;2023-03-04T16:13:45;9.75;;;2.08;;
73571;SDS011;61854;48.510;-2.770;2023-03-04T16:16:14;8.10;;;1.90;;
73571;SDS011;61854;48.510;-2.770;2023-03-04T16:18:40;6.57;;;1.75;;
73571;SDS011;61854;48.510;-2.770;2023-03-04T16:21:13;8.98;;;1.95;;
73571;SDS011;61854;48.510;-2.770;2023-03-04T16:23:45;12.52;;;2.80;;
73571;SDS011;61854;48.510;-2.770;2023-03-04T16:26:21;9.68;;;3.08;;